createdAt,value
2018-12-02T00:00:06.524Z,6.05
2018-12-02T00:01:06.548Z,6.06
2018-12-02T00:02:06.576Z,6.06
2018-12-02T00:03:06.605Z,6.01
2018-12-02T00:04:06.632Z,5.99
2018-12-02T00:05:06.657Z,6.06
2018-12-02T00:06:06.686Z,6.05
2018-12-02T00:07:06.716Z,6.06
2018-12-02T00:08:06.743Z,6.05
2018-12-02T00:09:06.777Z,6.10
2018-12-02T00:10:06.794Z,6.08
2018-12-02T00:11:06.825Z,6.03
2018-12-02T00:12:06.852Z,5.99
2018-12-02T00:13:06.878Z,5.96
2018-12-02T00:14:06.907Z,6.05
2018-12-02T00:15:06.934Z,6.08
2018-12-02T00:16:06.961Z,6.08
2018-12-02T00:17:06.989Z,6.08
2018-12-02T00:18:07.026Z,6.06
2018-12-02T00:19:07.049Z,6.06
2018-12-02T00:20:07.072Z,6.08
2018-12-02T00:21:07.109Z,6.03
2018-12-02T00:22:07.126Z,6.05
2018-12-02T00:23:07.160Z,6.06
2018-12-02T00:24:07.185Z,6.02
2018-12-02T00:25:07.209Z,6.01
2018-12-02T00:26:07.237Z,6.05
2018-12-02T00:27:07.266Z,6.08
2018-12-02T00:28:07.294Z,6.10
2018-12-02T00:29:07.321Z,6.02
2018-12-02T00:30:07.346Z,6.06
2018-12-02T00:31:07.376Z,6.13
2018-12-02T00:32:07.403Z,6.05
2018-12-02T00:33:07.430Z,6.05
2018-12-02T00:34:07.459Z,6.02
2018-12-02T00:35:07.487Z,6.08
2018-12-02T00:36:07.519Z,6.06
2018-12-02T00:37:07.545Z,6.06
2018-12-02T00:38:07.568Z,6.10
2018-12-02T00:39:07.596Z,6.08
2018-12-02T00:40:07.628Z,6.03
2018-12-02T00:41:07.653Z,6.10
2018-12-02T00:42:07.680Z,6.02
2018-12-02T00:43:07.707Z,5.99
2018-12-02T00:44:07.735Z,6.05
2018-12-02T00:45:07.766Z,6.05
2018-12-02T00:46:07.790Z,6.11
2018-12-02T00:47:07.818Z,5.98
2018-12-02T00:48:07.876Z,6.01
2018-12-02T00:49:07.873Z,6.10
2018-12-02T00:50:07.927Z,6.05
2018-12-02T00:51:07.928Z,6.06
2018-12-02T00:52:07.956Z,6.06
2018-12-02T00:53:07.993Z,5.98
2018-12-02T00:54:08.011Z,5.96
2018-12-02T00:55:08.039Z,6.03
2018-12-02T00:56:08.069Z,6.06
2018-12-02T00:57:08.093Z,6.06
2018-12-02T00:58:08.121Z,6.08
2018-12-02T00:59:08.149Z,6.16
2018-12-02T01:00:08.177Z,6.14
2018-12-02T01:01:08.204Z,6.05
2018-12-02T01:02:08.231Z,6.14
2018-12-02T01:03:08.264Z,6.11
2018-12-02T01:04:08.288Z,6.08
2018-12-02T01:05:08.315Z,6.11
2018-12-02T01:06:08.342Z,6.14
2018-12-02T01:07:08.370Z,6.14
2018-12-02T01:08:08.398Z,6.11
2018-12-02T01:09:08.425Z,6.10
2018-12-02T01:10:08.453Z,6.06
2018-12-02T01:11:08.480Z,6.05
2018-12-02T01:12:08.508Z,6.08
2018-12-02T01:13:08.535Z,6.05
2018-12-02T01:14:08.563Z,6.03
2018-12-02T01:15:08.590Z,6.20
2018-12-02T01:16:08.641Z,6.02
2018-12-02T01:17:08.647Z,6.05
2018-12-02T01:18:08.674Z,6.14
2018-12-02T01:19:08.701Z,6.11
2018-12-02T01:20:08.730Z,6.06
2018-12-02T01:21:08.757Z,6.08
2018-12-02T01:22:08.784Z,6.05
2018-12-02T01:23:08.815Z,6.10
2018-12-02T01:24:08.840Z,6.13
2018-12-02T01:25:08.888Z,6.11
2018-12-02T01:26:08.893Z,6.06
2018-12-02T01:27:08.922Z,6.13
2018-12-02T01:28:08.952Z,6.11
2018-12-02T01:29:08.982Z,6.10
2018-12-02T01:30:09.005Z,6.08
2018-12-02T01:31:09.033Z,6.14
2018-12-02T01:32:09.061Z,6.05
2018-12-02T01:33:09.091Z,6.02
2018-12-02T01:34:09.122Z,6.10
2018-12-02T01:35:09.147Z,6.19
2018-12-02T01:36:09.173Z,6.19
2018-12-02T01:37:09.200Z,6.27
2018-12-02T01:38:09.227Z,6.14
2018-12-02T01:39:09.255Z,6.19
2018-12-02T01:40:09.285Z,6.08
2018-12-02T01:41:09.310Z,6.02
2018-12-02T01:42:09.339Z,6.11
2018-12-02T01:43:09.366Z,6.20
2018-12-02T01:44:09.395Z,6.14
2018-12-02T01:45:09.422Z,6.17
2018-12-02T01:46:09.449Z,6.19
2018-12-02T01:47:09.478Z,6.20
2018-12-02T01:48:09.505Z,6.14
2018-12-02T01:49:09.532Z,6.19
2018-12-02T01:50:09.561Z,6.17
2018-12-02T01:51:09.588Z,6.16
2018-12-02T01:52:09.616Z,6.13
2018-12-02T01:53:09.643Z,6.10
2018-12-02T01:54:09.671Z,6.16
2018-12-02T01:55:09.699Z,6.24
2018-12-02T01:56:09.727Z,6.05
2018-12-02T01:57:09.759Z,6.08
2018-12-02T01:58:09.783Z,6.16
2018-12-02T01:59:09.824Z,6.19
2018-12-02T02:00:09.853Z,6.14
2018-12-02T02:01:09.868Z,6.20
2018-12-02T02:02:09.892Z,6.14
2018-12-02T02:03:09.921Z,6.06
2018-12-02T02:04:09.948Z,6.13
2018-12-02T02:05:09.974Z,6.17
2018-12-02T02:06:10.002Z,6.16
2018-12-02T02:07:10.032Z,6.13
2018-12-02T02:08:10.061Z,6.14
2018-12-02T02:09:10.086Z,6.14
2018-12-02T02:10:10.114Z,6.13
2018-12-02T02:11:10.142Z,6.11
2018-12-02T02:12:10.171Z,6.13
2018-12-02T02:13:10.199Z,6.19
2018-12-02T02:14:10.225Z,6.11
2018-12-02T02:15:10.254Z,6.16
2018-12-02T02:16:10.280Z,6.24
2018-12-02T02:17:10.307Z,6.24
2018-12-02T02:18:10.336Z,6.10
2018-12-02T02:19:10.363Z,6.05
2018-12-02T02:20:10.392Z,6.05
2018-12-02T02:21:10.421Z,6.14
2018-12-02T02:22:10.446Z,6.17
2018-12-02T02:23:10.474Z,6.06
2018-12-02T02:24:10.507Z,6.08
2018-12-02T02:25:10.529Z,6.14
2018-12-02T02:26:10.558Z,6.10
2018-12-02T02:27:10.586Z,6.06
2018-12-02T02:28:10.615Z,6.06
2018-12-02T02:29:10.640Z,6.05
2018-12-02T02:30:10.670Z,6.11
2018-12-02T02:31:10.695Z,6.17
2018-12-02T02:32:10.724Z,6.05
2018-12-02T02:33:10.754Z,6.05
2018-12-02T02:34:10.778Z,6.02
2018-12-02T02:35:10.808Z,6.06
2018-12-02T02:36:10.844Z,6.03
2018-12-02T02:37:10.861Z,6.17
2018-12-02T02:38:10.889Z,6.08
2018-12-02T02:39:10.919Z,6.11
2018-12-02T02:40:10.946Z,6.03
2018-12-02T02:41:10.974Z,5.98
2018-12-02T02:42:11.002Z,6.10
2018-12-02T02:43:11.027Z,6.06
2018-12-02T02:44:11.054Z,6.08
2018-12-02T02:45:11.081Z,6.03
2018-12-02T02:46:11.112Z,6.05
2018-12-02T02:47:11.139Z,6.11
2018-12-02T02:48:11.168Z,6.08
2018-12-02T02:49:11.194Z,6.16
2018-12-02T02:50:11.221Z,6.13
2018-12-02T02:51:11.253Z,6.08
2018-12-02T02:52:11.278Z,6.08
2018-12-02T02:53:11.303Z,5.99
2018-12-02T02:54:11.331Z,5.99
2018-12-02T02:55:11.360Z,6.10
2018-12-02T02:56:11.390Z,6.08
2018-12-02T02:57:11.419Z,6.05
2018-12-02T02:58:11.441Z,5.95
2018-12-02T02:59:11.469Z,6.11
2018-12-02T03:00:11.497Z,6.05
2018-12-02T03:01:11.524Z,6.10
2018-12-02T03:02:11.552Z,6.10
2018-12-02T03:03:11.581Z,6.08
2018-12-02T03:04:11.609Z,6.08
2018-12-02T03:05:11.638Z,6.01
2018-12-02T03:06:11.663Z,5.98
2018-12-02T03:07:11.690Z,6.05
2018-12-02T03:08:11.718Z,6.08
2018-12-02T03:09:11.745Z,6.08
2018-12-02T03:10:11.775Z,6.01
2018-12-02T03:11:11.800Z,6.05
2018-12-02T03:12:11.829Z,5.99
2018-12-02T03:13:11.855Z,6.01
2018-12-02T03:14:11.881Z,6.01
2018-12-02T03:15:11.946Z,5.95
2018-12-02T03:16:11.938Z,6.01
2018-12-02T03:17:11.965Z,6.02
2018-12-02T03:18:11.993Z,5.95
2018-12-02T03:19:12.020Z,5.95
2018-12-02T03:20:12.048Z,5.98
2018-12-02T03:21:12.075Z,5.98
2018-12-02T03:22:12.102Z,5.98
2018-12-02T03:23:12.131Z,6.05
2018-12-02T03:24:12.158Z,5.93
2018-12-02T03:25:12.187Z,5.95
2018-12-02T03:26:12.215Z,5.98
2018-12-02T03:27:12.241Z,6.02
2018-12-02T03:28:12.268Z,6.06
2018-12-02T03:29:12.295Z,5.93
2018-12-02T03:30:12.323Z,6.03
2018-12-02T03:31:12.351Z,5.98
2018-12-02T03:32:12.383Z,6.03
2018-12-02T03:33:12.410Z,6.03
2018-12-02T03:34:12.434Z,6.01
2018-12-02T03:35:12.466Z,6.05
2018-12-02T03:36:12.488Z,6.05
2018-12-02T03:37:12.516Z,5.99
2018-12-02T03:38:12.544Z,6.05
2018-12-02T03:39:12.572Z,5.96
2018-12-02T03:40:12.598Z,5.95
2018-12-02T03:41:12.625Z,5.93
2018-12-02T03:42:12.655Z,5.98
2018-12-02T03:43:12.681Z,5.98
2018-12-02T03:44:12.709Z,6.06
2018-12-02T03:45:12.734Z,5.99
2018-12-02T03:46:12.764Z,6.03
2018-12-02T03:47:12.793Z,6.05
2018-12-02T03:48:12.868Z,6.03
2018-12-02T03:49:12.856Z,6.05
2018-12-02T03:50:17.507Z,6.03
2018-12-02T03:51:12.902Z,6.05
2018-12-02T03:52:12.928Z,6.02
2018-12-02T03:53:12.959Z,6.03
2018-12-02T03:54:12.983Z,6.06
2018-12-02T03:55:13.014Z,6.05
2018-12-02T03:56:13.038Z,6.02
2018-12-02T03:57:13.064Z,6.03
2018-12-02T03:58:13.093Z,6.06
2018-12-02T03:59:13.119Z,6.06
2018-12-02T04:00:13.147Z,5.99
2018-12-02T04:01:13.174Z,6.06
2018-12-02T04:02:13.203Z,6.03
2018-12-02T04:03:13.231Z,6.05
2018-12-02T04:04:13.258Z,6.05
2018-12-02T04:05:13.287Z,6.08
2018-12-02T04:06:13.313Z,6.11
2018-12-02T04:07:13.340Z,6.08
2018-12-02T04:08:13.369Z,6.10
2018-12-02T04:09:13.402Z,6.06
2018-12-02T04:10:13.422Z,6.06
2018-12-02T04:11:13.450Z,6.13
2018-12-02T04:12:13.478Z,6.05
2018-12-02T04:13:13.506Z,6.10
2018-12-02T04:14:13.533Z,6.06
2018-12-02T04:15:13.560Z,6.11
2018-12-02T04:16:13.590Z,6.08
2018-12-02T04:17:13.615Z,6.13
2018-12-02T04:18:13.642Z,6.08
2018-12-02T04:19:13.670Z,6.06
2018-12-02T04:20:13.704Z,5.99
2018-12-02T04:21:13.725Z,6.14
2018-12-02T04:22:13.752Z,6.13
2018-12-02T04:23:13.780Z,6.14
2018-12-02T04:24:13.808Z,6.03
2018-12-02T04:25:13.838Z,6.14
2018-12-02T04:26:13.863Z,6.17
2018-12-02T04:27:13.891Z,6.14
2018-12-02T04:28:13.918Z,6.06
2018-12-02T04:29:13.948Z,6.06
2018-12-02T04:30:13.976Z,6.05
2018-12-02T04:31:14.000Z,6.03
2018-12-02T04:32:14.029Z,6.13
2018-12-02T04:33:14.055Z,6.06
2018-12-02T04:34:14.085Z,6.11
2018-12-02T04:35:14.112Z,6.19
2018-12-02T04:36:14.139Z,6.16
2018-12-02T04:37:14.164Z,6.20
2018-12-02T04:38:14.192Z,6.24
2018-12-02T04:39:14.223Z,6.28
2018-12-02T04:40:14.253Z,6.20
2018-12-02T04:41:14.281Z,6.28
2018-12-02T04:42:14.304Z,6.21
2018-12-02T04:43:14.331Z,6.24
2018-12-02T04:44:14.369Z,6.33
2018-12-02T04:45:14.386Z,6.32
2018-12-02T04:46:14.412Z,6.25
2018-12-02T04:47:14.441Z,6.30
2018-12-02T04:48:14.472Z,6.24
2018-12-02T04:49:14.496Z,6.32
2018-12-02T04:50:14.524Z,6.28
2018-12-02T04:51:14.551Z,6.33
2018-12-02T04:52:14.580Z,6.32
2018-12-02T04:53:14.606Z,6.24
2018-12-02T04:54:14.633Z,6.30
2018-12-02T04:55:14.665Z,6.24
2018-12-02T04:56:14.691Z,6.24
2018-12-02T04:57:14.723Z,6.25
2018-12-02T04:58:14.744Z,6.21
2018-12-02T04:59:14.771Z,6.19
2018-12-02T05:00:14.807Z,6.20
2018-12-02T05:01:14.829Z,6.20
2018-12-02T05:02:14.858Z,6.27
2018-12-02T05:03:14.882Z,6.20
2018-12-02T05:04:14.910Z,6.16
2018-12-02T05:05:14.939Z,6.21
2018-12-02T05:06:14.967Z,6.10
2018-12-02T05:07:15.001Z,6.08
2018-12-02T05:08:15.022Z,6.05
2018-12-02T05:09:15.046Z,6.03
2018-12-02T05:10:15.076Z,6.06
2018-12-02T05:11:15.137Z,6.05
2018-12-02T05:12:15.131Z,6.11
2018-12-02T05:13:15.168Z,6.05
2018-12-02T05:14:15.183Z,6.16
2018-12-02T05:15:15.221Z,6.13
2018-12-02T05:16:15.240Z,6.08
2018-12-02T05:17:15.268Z,6.17
2018-12-02T05:18:15.306Z,6.05
2018-12-02T05:19:15.322Z,6.06
2018-12-02T05:20:15.352Z,6.05
2018-12-02T05:21:15.378Z,6.08
2018-12-02T05:22:15.407Z,6.08
2018-12-02T05:23:15.432Z,6.21
2018-12-02T05:24:15.462Z,6.08
2018-12-02T05:25:17.896Z,6.13
2018-12-02T05:26:15.516Z,6.08
2018-12-02T05:27:15.544Z,6.08
2018-12-02T05:28:15.571Z,6.05
2018-12-02T05:29:15.598Z,6.06
2018-12-02T05:30:15.625Z,6.17
2018-12-02T05:31:15.654Z,6.21
2018-12-02T05:32:15.681Z,6.20
2018-12-02T05:33:15.708Z,6.21
2018-12-02T05:34:15.737Z,6.20
2018-12-02T05:35:15.764Z,6.25
2018-12-02T05:36:15.792Z,6.24
2018-12-02T05:37:15.821Z,6.27
2018-12-02T05:38:15.846Z,6.33
2018-12-02T05:39:15.873Z,6.28
2018-12-02T05:40:15.904Z,6.33
2018-12-02T05:41:15.928Z,6.28
2018-12-02T05:42:15.957Z,6.20
2018-12-02T05:43:15.989Z,6.24
2018-12-02T05:44:16.011Z,6.20
2018-12-02T05:45:16.041Z,6.30
2018-12-02T05:46:16.067Z,6.24
2018-12-02T05:47:16.093Z,6.25
2018-12-02T05:48:16.122Z,6.25
2018-12-02T05:49:16.150Z,6.24
2018-12-02T05:50:16.178Z,6.24
2018-12-02T05:51:16.205Z,6.27
2018-12-02T05:52:16.233Z,6.27
2018-12-02T05:53:16.261Z,6.35
2018-12-02T05:54:16.288Z,6.32
2018-12-02T05:55:16.316Z,6.24
2018-12-02T05:56:16.342Z,6.25
2018-12-02T05:57:16.369Z,6.28
2018-12-02T05:58:16.412Z,6.30
2018-12-02T05:59:16.426Z,6.19
2018-12-02T06:00:16.455Z,6.24
2018-12-02T06:01:16.481Z,6.27
2018-12-02T06:02:17.646Z,6.25
2018-12-02T06:03:16.536Z,6.17
2018-12-02T06:04:16.564Z,6.20
2018-12-02T06:05:16.590Z,6.21
2018-12-02T06:06:16.618Z,6.25
2018-12-02T06:07:16.647Z,6.24
2018-12-02T06:08:16.674Z,6.17
2018-12-02T06:09:16.708Z,6.16
2018-12-02T06:10:16.728Z,6.24
2018-12-02T06:11:16.759Z,6.17
2018-12-02T06:12:16.784Z,6.08
2018-12-02T06:13:16.810Z,6.06
2018-12-02T06:14:16.838Z,6.14
2018-12-02T06:15:16.873Z,6.10
2018-12-02T06:16:16.901Z,6.06
2018-12-02T06:17:16.922Z,6.05
2018-12-02T06:18:16.948Z,6.14
2018-12-02T06:19:16.977Z,6.13
2018-12-02T06:20:17.004Z,6.10
2018-12-02T06:21:17.034Z,6.08
2018-12-02T06:22:17.059Z,6.11
2018-12-02T06:23:17.086Z,6.06
2018-12-02T06:24:17.122Z,6.08
2018-12-02T06:25:17.144Z,6.08
2018-12-02T06:26:17.170Z,6.16
2018-12-02T06:27:17.197Z,6.25
2018-12-02T06:28:17.224Z,6.21
2018-12-02T06:29:17.252Z,6.19
2018-12-02T06:30:17.281Z,6.25
2018-12-02T06:31:17.307Z,6.24
2018-12-02T06:32:17.335Z,6.28
2018-12-02T06:33:17.362Z,6.30
2018-12-02T06:34:17.406Z,6.27
2018-12-02T06:35:17.416Z,6.38
2018-12-02T06:36:17.444Z,6.28
2018-12-02T06:37:17.471Z,6.32
2018-12-02T06:38:17.499Z,6.36
2018-12-02T06:39:17.535Z,6.38
2018-12-02T06:40:17.554Z,6.36
2018-12-02T06:41:17.581Z,6.42
2018-12-02T06:42:17.609Z,6.43
2018-12-02T06:43:17.669Z,6.40
2018-12-02T06:44:17.681Z,6.48
2018-12-02T06:45:17.695Z,6.48
2018-12-02T06:46:17.721Z,6.46
2018-12-02T06:47:17.747Z,6.46
2018-12-02T06:48:17.777Z,6.43
2018-12-02T06:49:17.805Z,6.46
2018-12-02T06:50:17.832Z,6.57
2018-12-02T06:51:17.860Z,6.54
2018-12-02T06:52:17.887Z,6.57
2018-12-02T06:53:17.913Z,6.53
2018-12-02T06:54:17.941Z,6.63
2018-12-02T06:55:17.970Z,6.64
2018-12-02T06:56:18.004Z,6.58
2018-12-02T06:57:18.024Z,6.55
2018-12-02T06:58:18.053Z,6.58
2018-12-02T06:59:18.084Z,6.58
2018-12-02T07:00:18.108Z,6.63
2018-12-02T07:01:18.135Z,6.60
2018-12-02T07:02:18.163Z,6.61
2018-12-02T07:03:18.192Z,6.75
2018-12-02T07:04:18.220Z,6.72
2018-12-02T07:05:18.246Z,6.73
2018-12-02T07:06:18.275Z,6.68
2018-12-02T07:07:18.301Z,6.69
2018-12-02T07:08:18.334Z,6.68
2018-12-02T07:09:18.938Z,6.72
2018-12-02T07:10:18.386Z,6.76
2018-12-02T07:11:18.414Z,6.75
2018-12-02T07:12:18.440Z,6.71
2018-12-02T07:13:18.467Z,6.72
2018-12-02T07:14:18.499Z,6.78
2018-12-02T07:15:18.524Z,6.69
2018-12-02T07:16:18.553Z,6.75
2018-12-02T07:17:18.579Z,6.75
2018-12-02T07:18:18.608Z,6.75
2018-12-02T07:19:18.634Z,6.75
2018-12-02T07:20:18.663Z,6.73
2018-12-02T07:21:18.689Z,6.78
2018-12-02T07:22:18.719Z,6.73
2018-12-02T07:23:18.746Z,6.69
2018-12-02T07:24:18.775Z,6.71
2018-12-02T07:25:18.801Z,6.71
2018-12-02T07:26:18.833Z,6.81
2018-12-02T07:27:18.857Z,6.86
2018-12-02T07:28:18.886Z,6.83
2018-12-02T07:29:18.913Z,6.86
2018-12-02T07:30:18.947Z,6.83
2018-12-02T07:31:18.969Z,6.78
2018-12-02T07:32:18.998Z,6.82
2018-12-02T07:33:19.024Z,6.87
2018-12-02T07:34:19.054Z,6.79
2018-12-02T07:35:19.084Z,6.86
2018-12-02T07:36:19.109Z,6.86
2018-12-02T07:37:19.137Z,6.87
2018-12-02T07:38:19.166Z,6.86
2018-12-02T07:39:19.192Z,6.90
2018-12-02T07:40:19.221Z,6.89
2018-12-02T07:41:19.250Z,6.86
2018-12-02T07:42:19.277Z,6.86
2018-12-02T07:43:19.305Z,6.86
2018-12-02T07:44:19.333Z,6.86
2018-12-02T07:45:19.362Z,6.89
2018-12-02T07:46:19.389Z,6.86
2018-12-02T07:47:19.420Z,6.86
2018-12-02T07:48:19.445Z,6.75
2018-12-02T07:49:19.473Z,6.86
2018-12-02T07:50:19.498Z,6.82
2018-12-02T07:51:19.528Z,6.86
2018-12-02T07:52:19.555Z,6.87
2018-12-02T07:53:19.583Z,6.82
2018-12-02T07:54:19.614Z,6.86
2018-12-02T07:55:19.641Z,6.87
2018-12-02T07:56:19.667Z,6.86
2018-12-02T07:57:19.695Z,6.75
2018-12-02T07:58:19.723Z,6.72
2018-12-02T07:59:19.751Z,6.75
2018-12-02T08:00:19.796Z,6.79
2018-12-02T08:01:19.814Z,6.73
2018-12-02T08:02:19.835Z,6.86
2018-12-02T08:03:19.863Z,6.86
2018-12-02T08:04:19.892Z,6.86
2018-12-02T08:05:19.923Z,6.86
2018-12-02T08:06:19.946Z,6.89
2018-12-02T08:07:19.977Z,6.86
2018-12-02T08:08:20.003Z,6.82
2018-12-02T08:09:20.040Z,6.86
2018-12-02T08:10:20.060Z,6.83
2018-12-02T08:11:20.086Z,6.86
2018-12-02T08:12:20.117Z,6.89
2018-12-02T08:13:20.141Z,6.96
2018-12-02T08:14:20.168Z,6.94
2018-12-02T08:15:20.196Z,6.89
2018-12-02T08:16:20.225Z,6.91
2018-12-02T08:17:20.253Z,6.87
2018-12-02T08:18:20.283Z,6.99
2018-12-02T08:19:20.308Z,6.90
2018-12-02T08:20:20.337Z,6.86
2018-12-02T08:21:20.366Z,6.93
2018-12-02T08:22:20.396Z,6.99
2018-12-02T08:23:20.421Z,6.93
2018-12-02T08:24:20.447Z,6.89
2018-12-02T08:25:20.476Z,6.87
2018-12-02T08:26:20.502Z,6.89
2018-12-02T08:27:20.530Z,6.91
2018-12-02T08:28:20.559Z,6.90
2018-12-02T08:29:20.587Z,6.90
2018-12-02T08:30:20.652Z,6.91
2018-12-02T08:31:20.644Z,6.90
2018-12-02T08:32:20.673Z,6.83
2018-12-02T08:33:20.703Z,6.87
2018-12-02T08:34:20.728Z,6.91
2018-12-02T08:35:20.767Z,6.86
2018-12-02T08:36:20.783Z,6.89
2018-12-02T08:37:20.811Z,6.91
2018-12-02T08:38:20.839Z,6.87
2018-12-02T08:39:20.870Z,6.87
2018-12-02T08:40:20.894Z,6.82
2018-12-02T08:41:20.923Z,6.87
2018-12-02T08:42:20.951Z,6.97
2018-12-02T08:43:20.977Z,6.99
2018-12-02T08:44:21.006Z,6.94
2018-12-02T08:45:21.034Z,6.99
2018-12-02T08:46:21.064Z,7.05
2018-12-02T08:47:21.090Z,7.00
2018-12-02T08:48:21.120Z,6.96
2018-12-02T08:49:21.145Z,6.99
2018-12-02T08:50:21.175Z,6.96
2018-12-02T08:51:21.202Z,6.97
2018-12-02T08:52:21.231Z,7.01
2018-12-02T08:53:21.258Z,6.96
2018-12-02T08:54:21.287Z,7.00
2018-12-02T08:55:21.324Z,7.00
2018-12-02T08:56:21.344Z,6.99
2018-12-02T08:57:21.370Z,7.01
2018-12-02T08:58:21.401Z,6.99
2018-12-02T08:59:21.426Z,6.96
2018-12-02T09:00:21.463Z,7.07
2018-12-02T09:01:21.483Z,7.09
2018-12-02T09:02:21.511Z,7.08
2018-12-02T09:03:21.539Z,7.04
2018-12-02T09:04:21.567Z,7.08
2018-12-02T09:05:21.595Z,7.07
2018-12-02T09:06:21.623Z,7.16
2018-12-02T09:07:21.651Z,7.21
2018-12-02T09:08:21.679Z,7.18
2018-12-02T09:09:21.711Z,7.12
2018-12-02T09:10:21.735Z,7.16
2018-12-02T09:11:21.763Z,7.24
2018-12-02T09:12:21.791Z,7.24
2018-12-02T09:13:21.820Z,7.27
2018-12-02T09:14:21.847Z,7.26
2018-12-02T09:15:21.877Z,7.24
2018-12-02T09:16:21.904Z,7.27
2018-12-02T09:17:21.931Z,7.33
2018-12-02T09:18:21.961Z,7.26
2018-12-02T09:19:21.991Z,7.27
2018-12-02T09:20:22.017Z,7.27
2018-12-02T09:21:22.048Z,7.24
2018-12-02T09:22:22.072Z,7.33
2018-12-02T09:23:22.102Z,7.27
2018-12-02T09:24:22.129Z,7.24
2018-12-02T09:25:22.157Z,7.33
2018-12-02T09:26:22.185Z,7.37
2018-12-02T09:27:22.216Z,7.33
2018-12-02T09:28:22.242Z,7.33
2018-12-02T09:29:22.276Z,7.36
2018-12-02T09:30:22.298Z,7.34
2018-12-02T09:31:22.328Z,7.32
2018-12-02T09:32:22.354Z,7.41
2018-12-02T09:33:22.384Z,7.36
2018-12-02T09:34:22.416Z,7.44
2018-12-02T09:35:22.440Z,7.44
2018-12-02T09:36:22.470Z,7.44
2018-12-02T09:37:22.497Z,7.39
2018-12-02T09:38:22.525Z,7.37
2018-12-02T09:39:22.554Z,7.41
2018-12-02T09:40:22.585Z,7.39
2018-12-02T09:41:22.611Z,7.41
2018-12-02T09:42:22.639Z,7.41
2018-12-02T09:43:22.666Z,7.41
2018-12-02T09:44:22.698Z,7.47
2018-12-02T09:45:22.724Z,7.41
2018-12-02T09:46:22.755Z,7.41
2018-12-02T09:47:22.784Z,7.36
2018-12-02T09:48:22.811Z,7.39
2018-12-02T09:49:22.839Z,7.44
2018-12-02T09:50:22.866Z,7.42
2018-12-02T09:51:23.096Z,7.44
2018-12-02T09:52:22.923Z,7.47
2018-12-02T09:53:22.949Z,7.41
2018-12-02T09:54:23.434Z,7.50
2018-12-02T09:55:23.011Z,7.45
2018-12-02T09:56:23.036Z,7.51
2018-12-02T09:57:23.063Z,7.50
2018-12-02T09:58:23.093Z,7.50
2018-12-02T09:59:23.122Z,7.55
2018-12-02T10:00:23.150Z,7.57
2018-12-02T10:01:23.177Z,7.55
2018-12-02T10:02:23.206Z,7.57
2018-12-02T10:03:23.236Z,7.58
2018-12-02T10:04:23.263Z,7.50
2018-12-02T10:05:23.292Z,7.50
2018-12-02T10:06:23.318Z,7.55
2018-12-02T10:07:23.350Z,7.54
2018-12-02T10:08:23.376Z,7.63
2018-12-02T10:09:23.405Z,7.55
2018-12-02T10:10:23.452Z,7.62
2018-12-02T10:11:23.478Z,7.69
2018-12-02T10:12:23.490Z,7.77
2018-12-02T10:13:23.518Z,7.71
2018-12-02T10:14:23.546Z,7.69
2018-12-02T10:15:23.576Z,7.76
2018-12-02T10:16:23.608Z,7.76
2018-12-02T10:17:23.659Z,7.88
2018-12-02T10:18:23.661Z,7.79
2018-12-02T10:19:23.692Z,7.82
2018-12-02T10:20:23.720Z,7.89
2018-12-02T10:21:23.774Z,7.88
2018-12-02T10:22:23.775Z,7.94
2018-12-02T10:23:23.804Z,7.89
2018-12-02T10:24:23.832Z,7.89
2018-12-02T10:25:23.866Z,7.88
2018-12-02T10:26:23.891Z,7.99
2018-12-02T10:27:23.917Z,7.95
2018-12-02T10:28:23.947Z,8.07
2018-12-02T10:29:23.975Z,8.02
2018-12-02T10:30:24.029Z,8.00
2018-12-02T10:31:24.031Z,8.10
2018-12-02T10:32:24.062Z,8.06
2018-12-02T10:33:24.088Z,8.06
2018-12-02T10:34:24.115Z,8.06
2018-12-02T10:35:24.146Z,8.04
2018-12-02T10:36:24.174Z,8.07
2018-12-02T10:37:24.205Z,8.10
2018-12-02T10:38:24.238Z,8.14
2018-12-02T10:39:24.260Z,8.12
2018-12-02T10:40:24.289Z,8.21
2018-12-02T10:41:24.317Z,8.17
2018-12-02T10:42:24.346Z,8.21
2018-12-02T10:43:24.377Z,8.21
2018-12-02T10:44:24.404Z,8.24
2018-12-02T10:45:24.432Z,8.24
2018-12-02T10:46:24.462Z,8.28
2018-12-02T10:47:24.495Z,8.27
2018-12-02T10:48:24.520Z,8.25
2018-12-02T10:49:24.558Z,8.25
2018-12-02T10:50:24.577Z,8.27
2018-12-02T10:51:24.607Z,8.25
2018-12-02T10:52:24.635Z,8.28
2018-12-02T10:53:24.664Z,8.29
2018-12-02T10:54:24.692Z,8.28
2018-12-02T10:55:24.722Z,8.21
2018-12-02T10:56:24.752Z,8.31
2018-12-02T10:57:24.792Z,8.29
2018-12-02T10:58:24.807Z,8.37
2018-12-02T10:59:24.834Z,8.32
2018-12-02T11:00:24.864Z,8.39
2018-12-02T11:01:24.894Z,8.34
2018-12-02T11:02:24.922Z,8.37
2018-12-02T11:03:24.951Z,8.40
2018-12-02T11:04:24.990Z,8.46
2018-12-02T11:05:25.010Z,8.40
2018-12-02T11:06:25.037Z,8.47
2018-12-02T11:07:25.066Z,8.45
2018-12-02T11:08:25.097Z,8.45
2018-12-02T11:09:25.127Z,8.45
2018-12-02T11:10:25.153Z,8.42
2018-12-02T11:11:25.182Z,8.54
2018-12-02T11:12:25.213Z,8.43
2018-12-02T11:13:25.254Z,8.52
2018-12-02T11:14:25.271Z,8.54
2018-12-02T11:15:25.298Z,8.47
2018-12-02T11:16:25.343Z,8.55
2018-12-02T11:17:25.356Z,8.61
2018-12-02T11:18:25.390Z,8.46
2018-12-02T11:19:25.412Z,8.57
2018-12-02T11:20:25.445Z,8.58
2018-12-02T11:21:25.475Z,8.60
2018-12-02T11:22:25.500Z,8.60
2018-12-02T11:23:25.534Z,8.58
2018-12-02T11:24:25.558Z,8.58
2018-12-02T11:25:25.588Z,8.60
2018-12-02T11:26:25.616Z,8.55
2018-12-02T11:27:25.646Z,8.60
2018-12-02T11:28:25.794Z,8.57
2018-12-02T11:29:25.702Z,8.57
2018-12-02T11:30:25.733Z,8.60
2018-12-02T11:31:25.760Z,8.58
2018-12-02T11:32:25.790Z,8.46
2018-12-02T11:33:25.818Z,8.60
2018-12-02T11:34:25.848Z,8.64
2018-12-02T11:35:25.878Z,8.52
2018-12-02T11:36:25.907Z,8.49
2018-12-02T11:37:25.936Z,8.47
2018-12-02T11:38:25.964Z,8.46
2018-12-02T11:39:25.992Z,8.54
2018-12-02T11:40:26.025Z,8.49
2018-12-02T11:41:26.050Z,8.58
2018-12-02T11:42:26.080Z,8.46
2018-12-02T11:43:26.109Z,8.49
2018-12-02T11:44:26.138Z,8.58
2018-12-02T11:45:26.168Z,8.54
2018-12-02T11:46:26.195Z,8.50
2018-12-02T11:47:26.225Z,8.50
2018-12-02T11:48:26.255Z,8.61
2018-12-02T11:49:26.282Z,8.63
2018-12-02T11:50:26.312Z,8.63
2018-12-02T11:51:26.343Z,8.58
2018-12-02T11:52:26.373Z,8.54
2018-12-02T11:53:26.399Z,8.57
2018-12-02T11:54:26.428Z,8.58
2018-12-02T11:55:26.458Z,8.57
2018-12-02T11:56:26.486Z,8.65
2018-12-02T11:57:26.730Z,8.76
2018-12-02T11:58:26.543Z,8.68
2018-12-02T11:59:26.573Z,8.73
2018-12-02T12:00:26.603Z,8.70
2018-12-02T12:01:26.630Z,8.78
2018-12-02T12:02:26.663Z,8.68
2018-12-02T12:03:26.692Z,8.73
2018-12-02T12:04:26.723Z,8.80
2018-12-02T12:05:26.750Z,8.80
2018-12-02T12:06:26.778Z,8.80
2018-12-02T12:07:26.817Z,8.79
2018-12-02T12:08:26.837Z,8.76
2018-12-02T12:09:26.866Z,8.76
2018-12-02T12:10:26.893Z,8.82
2018-12-02T12:11:26.924Z,8.78
2018-12-02T12:12:26.953Z,8.78
2018-12-02T12:13:26.982Z,8.80
2018-12-02T12:14:27.013Z,8.82
2018-12-02T12:15:27.053Z,8.78
2018-12-02T12:16:27.073Z,8.85
2018-12-02T12:17:27.098Z,8.89
2018-12-02T12:18:27.128Z,8.88
2018-12-02T12:19:27.157Z,8.82
2018-12-02T12:20:27.228Z,8.88
2018-12-02T12:21:27.216Z,8.79
2018-12-02T12:22:27.246Z,8.80
2018-12-02T12:23:27.280Z,8.83
2018-12-02T12:24:27.304Z,8.88
2018-12-02T12:25:27.342Z,8.88
2018-12-02T12:26:27.372Z,8.80
2018-12-02T12:27:27.397Z,8.89
2018-12-02T12:28:27.421Z,8.83
2018-12-02T12:29:27.450Z,8.83
2018-12-02T12:30:27.479Z,8.89
2018-12-02T12:31:27.509Z,8.83
2018-12-02T12:32:27.538Z,8.85
2018-12-02T12:33:27.568Z,8.86
2018-12-02T12:34:27.596Z,8.89
2018-12-02T12:35:27.626Z,8.83
2018-12-02T12:36:27.654Z,8.86
2018-12-02T12:37:27.684Z,8.88
2018-12-02T12:38:27.728Z,8.91
2018-12-02T12:39:27.745Z,8.88
2018-12-02T12:40:27.816Z,8.79
2018-12-02T12:41:27.803Z,8.80
2018-12-02T12:42:27.831Z,8.86
2018-12-02T12:43:27.862Z,8.83
2018-12-02T12:44:27.889Z,8.79
2018-12-02T12:45:27.918Z,8.83
2018-12-02T12:46:27.951Z,8.93
2018-12-02T12:47:27.979Z,8.88
2018-12-02T12:48:28.009Z,8.91
2018-12-02T12:49:28.040Z,8.82
2018-12-02T12:50:28.070Z,8.85
2018-12-02T12:51:28.100Z,8.82
2018-12-02T12:52:28.125Z,8.89
2018-12-02T12:53:28.170Z,8.80
2018-12-02T12:54:28.181Z,8.85
2018-12-02T12:55:29.048Z,8.88
2018-12-02T12:56:28.242Z,8.89
2018-12-02T12:57:28.270Z,8.79
2018-12-02T12:58:28.300Z,8.79
2018-12-02T12:59:28.330Z,8.78
2018-12-02T13:00:28.358Z,8.79
2018-12-02T13:01:28.388Z,8.71
2018-12-02T13:02:28.417Z,8.80
2018-12-02T13:03:28.446Z,8.79
2018-12-02T13:04:28.483Z,8.78
2018-12-02T13:05:28.504Z,8.68
2018-12-02T13:06:28.535Z,8.68
2018-12-02T13:07:28.564Z,8.75
2018-12-02T13:08:28.594Z,8.76
2018-12-02T13:09:28.622Z,8.71
2018-12-02T13:10:28.650Z,8.71
2018-12-02T13:11:28.681Z,8.68
2018-12-02T13:12:28.710Z,8.75
2018-12-02T13:13:28.739Z,8.68
2018-12-02T13:14:28.769Z,8.70
2018-12-02T13:15:28.799Z,8.75
2018-12-02T13:16:28.827Z,8.70
2018-12-02T13:17:28.857Z,8.65
2018-12-02T13:18:28.884Z,8.71